»·PEaware :: DAL2841 KSLC-KPDX

DAL2841 :: KSLC-KPDX

FLIGHT INFORMATION

Flight Status: Arrived
Operator:
Delta Air Lines
More flights by this operator :: More flights under this callsign
Pilot: Joe P. (13940)
Aircraft: BOEING 737-700
(B737)
More flights by this aircraft type
Origin: KSLC Salt Lake City Intl
United States
Destination: KPDX Portland Intl
United States
More flights between these airports :: More routes between these airports
Route: CGULL1 TWF J15 BOI J163 BKE JOTBA HHOOD4
File this flight plan on PilotEdge
Remarks: KSEA -PBN / A1B1C1D1L1O1S1 NAV / RNVD1E2A1 DOF / 180811 REG / N389DA EET / KZSE0052 RVR / 200 PER / C
Altitude:
(Current/Filed)
340ft
Speed:
(Current/Filed)
461kts
Departed: 10-Aug-18 05:59 PM
Arrived: 10-Aug-18 07:24 PM
Distance/Time
Traveled:
546nm/1:25
Distance/Time
To Go:
Arrived

Flight Plot

Page will automatically refresh every two minutes.

Flight plan parsing failed; only flown route is shown


Map Options




Map Legend


Flown Route
Filed Route
Departure Airport
Arrival Airport
Navaid (VOR, NDB)
Fix

Horizontal Profiles

Position Reports

Time Latitude Longitude Heading Altitude Ground
Speed
10-Aug-18 16:58 40.789075 -111.985536 130 4235ft 0kts
10-Aug-18 16:59 40.789075 -111.985536 130 4235ft 0kts
10-Aug-18 17:00 40.789075 -111.985536 130 4235ft 0kts
10-Aug-18 17:01 40.789075 -111.985536 130 4235ft 0kts
10-Aug-18 17:02 40.789075 -111.985536 130 4235ft 0kts
10-Aug-18 17:03 40.789075 -111.985536 130 4235ft 0kts
10-Aug-18 17:04 40.789075 -111.985536 130 4235ft 0kts
10-Aug-18 17:05 40.789075 -111.985536 130 4235ft 0kts
10-Aug-18 17:06 40.789075 -111.985536 130 4235ft 0kts
10-Aug-18 17:07 40.789075 -111.985536 130 4235ft 0kts
10-Aug-18 17:08 40.789075 -111.985536 130 4235ft 0kts
10-Aug-18 17:09 40.789075 -111.985536 130 4235ft 0kts
10-Aug-18 17:10 40.789075 -111.985536 130 4235ft 0kts
10-Aug-18 17:11 40.789075 -111.985536 130 4235ft 0kts
10-Aug-18 17:12 40.789075 -111.985536 130 4235ft 0kts
10-Aug-18 17:13 40.789075 -111.985536 130 4235ft 0kts
10-Aug-18 17:14 40.789075 -111.985536 130 4235ft 0kts
10-Aug-18 17:15 40.789075 -111.985536 130 4235ft 0kts
10-Aug-18 17:16 40.789075 -111.985536 130 4235ft 0kts
10-Aug-18 17:17 40.789075 -111.985536 130 4235ft 0kts
10-Aug-18 17:18 40.789075 -111.985536 130 4235ft 0kts
10-Aug-18 17:19 40.789075 -111.985536 130 4235ft 0kts
10-Aug-18 17:20 40.789075 -111.985536 130 4235ft 0kts
10-Aug-18 17:21 40.789075 -111.985536 130 4235ft 0kts
10-Aug-18 17:22 40.789075 -111.985536 130 4235ft 0kts
10-Aug-18 17:23 40.789075 -111.985536 130 4235ft 0kts
10-Aug-18 17:24 40.789075 -111.985536 130 4235ft 0kts
10-Aug-18 17:25 40.789075 -111.985536 130 4235ft 0kts
10-Aug-18 17:26 40.789075 -111.985536 130 4235ft 0kts
10-Aug-18 17:27 40.789075 -111.985536 130 4235ft 0kts
10-Aug-18 17:28 40.789075 -111.985536 130 4235ft 0kts
10-Aug-18 17:29 40.789075 -111.985536 130 4235ft 0kts
10-Aug-18 17:30 40.789075 -111.985536 130 4235ft 0kts
10-Aug-18 17:31 40.789075 -111.985536 130 4235ft 0kts
10-Aug-18 17:32 40.789075 -111.985536 130 4235ft 0kts
10-Aug-18 17:33 40.789075 -111.985536 130 4235ft 0kts
10-Aug-18 17:34 40.789075 -111.985536 130 4235ft 0kts
10-Aug-18 17:35 40.789075 -111.985536 130 4235ft 0kts
10-Aug-18 17:36 40.789075 -111.985536 130 4235ft 0kts
10-Aug-18 17:37 40.789075 -111.985536 130 4235ft 0kts
10-Aug-18 17:38 40.789075 -111.985536 130 4235ft 0kts
10-Aug-18 17:39 40.789075 -111.985536 130 4235ft 0kts
10-Aug-18 17:40 40.789075 -111.985536 130 4235ft 0kts
10-Aug-18 17:41 40.789075 -111.985536 130 4235ft 0kts
10-Aug-18 17:42 40.789075 -111.985536 130 4235ft 0kts
10-Aug-18 17:43 40.789075 -111.985536 130 4235ft 0kts
10-Aug-18 17:44 40.789075 -111.985536 130 4235ft 0kts
10-Aug-18 17:45 40.789075 -111.985536 130 4235ft 0kts
10-Aug-18 17:46 40.789075 -111.985536 130 4235ft 0kts
10-Aug-18 17:47 40.789075 -111.985536 130 4235ft 0kts
10-Aug-18 17:48 40.789367 -111.986071 114 4235ft 2kts
10-Aug-18 17:49 40.789215 -111.986654 27 4235ft 2kts
10-Aug-18 17:50 40.789124 -111.986715 27 4235ft 0kts
10-Aug-18 17:51 40.789124 -111.986715 27 4235ft 0kts
10-Aug-18 17:52 40.789133 -111.986710 26 4235ft 0kts
10-Aug-18 17:53 40.788408 -111.988552 218 4235ft 17kts
10-Aug-18 17:54 40.787150 -111.993648 189 4235ft 9kts
10-Aug-18 17:55 40.784678 -111.993478 175 4235ft 18kts
10-Aug-18 17:56 40.778518 -111.992623 172 4235ft 19kts
10-Aug-18 17:57 40.775142 -111.993478 283 4235ft 7kts
10-Aug-18 17:58 40.775239 -111.993964 281 4235ft 0kts
10-Aug-18 17:59 40.775718 -111.995589 355 4235ft 0kts
10-Aug-18 18:00 40.796325 -111.997978 354 4373ft 170kts
10-Aug-18 18:01 40.828769 -112.038717 292 6843ft 202kts
10-Aug-18 18:02 40.860303 -112.116577 310 7960ft 271kts
10-Aug-18 18:03 40.912943 -112.193586 311 10284ft 302kts
10-Aug-18 18:04 40.974213 -112.283968 311 11758ft 363kts
10-Aug-18 18:05 41.043710 -112.387052 311 14106ft 383kts
10-Aug-18 18:06 41.128627 -112.475610 328 16474ft 397kts
10-Aug-18 18:07 41.220514 -112.560663 321 18723ft 410kts
10-Aug-18 18:08 41.307719 -112.661850 312 20747ft 423kts
10-Aug-18 18:09 41.387753 -112.780170 311 22548ft 434kts
10-Aug-18 18:10 41.468488 -112.902749 310 24164ft 444kts
10-Aug-18 18:11 41.550223 -113.028571 310 25582ft 454kts
10-Aug-18 18:12 41.633813 -113.157667 310 26909ft 463kts
10-Aug-18 18:13 41.719024 -113.288799 310 28131ft 472kts
10-Aug-18 18:14 41.805714 -113.423332 310 29293ft 478kts
10-Aug-18 18:15 41.892009 -113.557989 310 30879ft 474kts
10-Aug-18 18:16 41.977684 -113.692017 310 32347ft 472kts
10-Aug-18 18:17 42.062766 -113.825927 310 33683ft 470kts
10-Aug-18 18:18 42.147917 -113.960974 310 34055ft 472kts
10-Aug-18 18:19 42.232401 -114.094868 310 34056ft 470kts
10-Aug-18 18:20 42.317448 -114.229397 310 34057ft 470kts
10-Aug-18 18:21 42.401952 -114.364312 309 34059ft 470kts
10-Aug-18 18:22 42.486460 -114.499897 310 34059ft 470kts
10-Aug-18 18:23 42.572725 -114.633326 310 34058ft 471kts
10-Aug-18 18:24 42.658831 -114.767394 310 34056ft 472kts
10-Aug-18 18:25 42.745356 -114.902141 309 34055ft 472kts
10-Aug-18 18:26 42.831641 -115.036875 309 34048ft 473kts
10-Aug-18 18:27 42.917638 -115.172127 309 34032ft 473kts
10-Aug-18 18:28 43.003614 -115.308075 309 34008ft 473kts
10-Aug-18 18:29 43.089441 -115.444443 308 33974ft 473kts
10-Aug-18 18:30 43.175283 -115.581506 308 33952ft 474kts
10-Aug-18 18:31 43.260787 -115.718670 308 33947ft 474kts
10-Aug-18 18:32 43.346377 -115.856584 308 33945ft 474kts
10-Aug-18 18:33 43.431755 -115.994425 307 33937ft 473kts
10-Aug-18 18:34 43.517012 -116.133543 307 33924ft 474kts
10-Aug-18 18:35 43.610055 -116.262563 316 33919ft 477kts
10-Aug-18 18:36 43.709747 -116.384363 315 33906ft 477kts
10-Aug-18 18:37 43.808934 -116.506541 315 33904ft 477kts
10-Aug-18 18:38 43.908199 -116.628385 315 33901ft 478kts
10-Aug-18 18:39 44.007682 -116.751548 315 33902ft 478kts
10-Aug-18 18:40 44.106715 -116.874884 314 33897ft 479kts
10-Aug-18 18:41 44.205864 -116.998998 314 33902ft 480kts
10-Aug-18 18:42 44.304872 -117.123531 314 33919ft 479kts
10-Aug-18 18:43 44.403952 -117.248755 314 33946ft 480kts
10-Aug-18 18:44 44.502883 -117.374391 313 33974ft 480kts
10-Aug-18 18:45 44.601571 -117.500318 313 33996ft 480kts
10-Aug-18 18:46 44.700526 -117.626816 313 34007ft 480kts
10-Aug-18 18:47 44.798828 -117.753828 312 34009ft 479kts
10-Aug-18 18:48 44.854790 -117.914424 276 34010ft 456kts
10-Aug-18 18:49 44.877537 -118.090203 275 34011ft 453kts
10-Aug-18 18:50 44.899686 -118.265314 274 34014ft 453kts
10-Aug-18 18:51 44.922423 -118.440017 275 34017ft 454kts
10-Aug-18 18:52 44.944700 -118.615092 274 34021ft 452kts
10-Aug-18 18:53 44.966554 -118.790104 274 34023ft 452kts
10-Aug-18 18:54 44.988059 -118.964877 274 33999ft 452kts
10-Aug-18 18:55 45.009326 -119.140144 274 33953ft 451kts
10-Aug-18 18:56 45.030198 -119.314490 274 33942ft 451kts
10-Aug-18 18:57 45.050852 -119.489378 273 33943ft 450kts
10-Aug-18 18:58 45.071214 -119.664177 273 33936ft 450kts
10-Aug-18 18:59 45.091334 -119.839311 273 33824ft 449kts
10-Aug-18 19:00 45.110974 -120.012700 273 31145ft 445kts
10-Aug-18 19:01 45.130357 -120.183089 273 29010ft 429kts
10-Aug-18 19:02 45.148311 -120.347275 273 26991ft 416kts
10-Aug-18 19:03 45.168028 -120.507434 281 24977ft 413kts
10-Aug-18 19:04 45.218564 -120.654957 293 22966ft 416kts
10-Aug-18 19:05 45.274221 -120.797739 293 20954ft 411kts
10-Aug-18 19:06 45.328464 -120.939723 292 18950ft 405kts
10-Aug-18 19:07 45.381502 -121.079484 292 17052ft 396kts
10-Aug-18 19:08 45.431026 -121.215899 285 15268ft 375kts
10-Aug-18 19:09 45.458638 -121.354534 279 13639ft 356kts
10-Aug-18 19:10 45.484819 -121.487073 280 12199ft 340kts
10-Aug-18 19:11 45.509626 -121.613357 280 10905ft 320kts
10-Aug-18 19:12 45.530001 -121.730434 272 9929ft 280kts
10-Aug-18 19:13 45.534052 -121.839066 271 8827ft 254kts
10-Aug-18 19:14 45.537221 -121.929998 271 7758ft 223kts
10-Aug-18 19:15 45.541262 -122.012124 273 6949ft 189kts
10-Aug-18 19:16 45.524845 -122.077590 235 6406ft 189kts
10-Aug-18 19:17 45.493261 -122.139953 235 5787ft 195kts
10-Aug-18 19:18 45.466631 -122.207326 249 4298ft 198kts
10-Aug-18 19:19 45.471928 -122.277821 292 3990ft 181kts
10-Aug-18 19:20 45.493737 -122.336614 296 3620ft 156kts
10-Aug-18 19:21 45.514350 -122.389531 296 2799ft 152kts
10-Aug-18 19:22 45.535344 -122.443267 297 1972ft 155kts
10-Aug-18 19:23 45.556435 -122.497268 297 1144ft 153kts
10-Aug-18 19:24 45.577431 -122.551068 296 313ft 153kts
10-Aug-18 19:25 45.592029 -122.589254 278 26ft 26kts
10-Aug-18 19:26 45.592062 -122.589902 274 26ft 0kts
10-Aug-18 19:27 45.592117 -122.591211 275 26ft 13kts
10-Aug-18 19:28 45.591268 -122.594138 206 26ft 0kts
10-Aug-18 19:29 45.591268 -122.594138 206 26ft 0kts
10-Aug-18 19:30 45.591268 -122.594138 206 26ft 0kts
10-Aug-18 19:31 45.591268 -122.594138 206 26ft 0kts
10-Aug-18 19:32 45.591268 -122.594138 206 26ft 0kts
10-Aug-18 19:33 45.591268 -122.594138 206 26ft 0kts
10-Aug-18 19:34 45.591268 -122.594138 206 26ft 0kts
10-Aug-18 19:35 45.591268 -122.594138 206 26ft 0kts
10-Aug-18 19:36 45.591268 -122.594138 206 26ft 0kts
10-Aug-18 19:37 45.591268 -122.594138 206 26ft 0kts
10-Aug-18 19:38 45.591268 -122.594138 206 26ft 0kts
10-Aug-18 19:39 45.591268 -122.594138 206 26ft 0kts

Navigation Log

Ident Type
Flight plan parsing failed, navigation log unavailable